Time;durP1;ratioP1;P1;durP2;ratioP2;P2;SDS_P1;SDS_P2;PMS_P1;PMS_P2;Temp;Humidity;BMP_temperature;BMP_pressure;BME280_temperature;BME280_humidity;BME280_pressure;Samples;Min_cycle;Max_cycle;Signal;HPM_P1;HPM_P2
2021/11/08 00:01:37;;;;;;;51.40;26.58;;;;;;;10.52;73.38;95611.25;5045331;28;20094;-75
2021/11/08 00:04:04;;;;;;;49.38;25.95;;;;;;;10.40;74.43;95618.78;5037214;28;20119;-75
2021/11/08 00:06:29;;;;;;;51.85;26.42;;;;;;;10.46;74.09;95614.59;5043748;28;20031;-77
2021/11/08 00:08:55;;;;;;;47.47;25.75;;;;;;;10.45;74.54;95619.09;5043378;28;20029;-75
2021/11/08 00:11:20;;;;;;;45.88;26.13;;;;;;;10.42;74.51;95611.41;5044057;28;20025;-78
2021/11/08 00:13:46;;;;;;;49.92;25.48;;;;;;;10.41;74.88;95617.78;5044121;28;20021;-77
2021/11/08 00:21:36;;;;;;;52.05;28.52;;;;;;;10.38;74.36;95613.59;5040895;28;20033;-78
2021/11/08 00:24:03;;;;;;;48.63;25.80;;;;;;;10.34;74.39;95611.44;5042968;28;20427;-76
2021/11/08 00:26:28;;;;;;;57.95;28.10;;;;;;;10.42;74.08;95610.56;5040128;28;20025;-76
2021/11/08 00:28:54;;;;;;;54.30;28.20;;;;;;;10.32;74.74;95608.91;5033633;28;20451;-76
2021/11/08 00:31:20;;;;;;;54.55;28.70;;;;;;;10.40;74.62;95608.06;5039552;28;20028;-75
2021/11/08 00:33:45;;;;;;;55.08;28.60;;;;;;;10.43;74.66;95612.25;5033474;28;20067;-77
2021/11/08 00:36:11;;;;;;;47.13;27.98;;;;;;;10.39;74.84;95598.34;5035134;28;20029;-76
2021/11/08 00:38:36;;;;;;;57.33;29.02;;;;;;;10.44;74.20;95604.03;5031885;28;20029;-77
2021/11/08 00:41:02;;;;;;;55.83;29.77;;;;;;;10.40;73.66;95602.69;5042341;28;20087;-75
2021/11/08 00:43:28;;;;;;;60.92;30.27;;;;;;;10.30;74.59;95596.69;5043279;28;20209;-75
2021/11/08 00:45:53;;;;;;;63.97;31.98;;;;;;;10.17;76.33;95590.03;5034516;28;20029;-76
2021/11/08 00:48:22;;;;;;;53.47;30.25;;;;;;;10.23;74.59;95589.34;5034537;28;20040;-76
2021/11/08 00:50:49;;;;;;;63.30;34.25;;;;;;;10.21;75.11;95586.00;5031649;28;20036;-75
2021/11/08 00:53:15;;;;;;;55.33;31.92;;;;;;;10.21;74.52;95590.50;5037308;28;20404;-76
2021/11/08 00:55:41;;;;;;;48.33;27.35;;;;;;;10.23;72.19;95583.13;5041643;28;20029;-76
2021/11/08 00:58:13;;;;;;;49.80;27.75;;;;;;;10.12;72.67;95587.03;5037796;28;20430;-76
2021/11/08 01:00:39;;;;;;;52.63;25.25;;;;;;;10.19;70.82;95584.50;5037913;28;20032;-75
2021/11/08 01:03:06;;;;;;;39.15;22.38;;;;;;;10.11;70.63;95580.81;5045292;28;20032;-75
2021/11/08 01:05:32;;;;;;;38.42;24.10;;;;;;;10.08;70.62;95583.84;5045121;28;20593;-76
2021/11/08 01:07:58;;;;;;;46.00;25.10;;;;;;;9.91;71.55;95575.00;5042710;28;20115;-75
2021/11/08 01:10:24;;;;;;;41.65;24.40;;;;;;;9.84;72.19;95577.50;5045389;28;20479;-75
2021/11/08 01:12:49;;;;;;;45.33;28.13;;;;;;;9.82;73.22;95565.31;5034770;28;20040;-76
2021/11/08 01:15:16;;;;;;;52.85;28.42;;;;;;;9.77;73.08;95563.94;5034918;28;20483;-77
2021/11/08 01:17:42;;;;;;;44.28;25.55;;;;;;;9.76;72.93;95556.94;5043601;28;20029;-76
2021/11/08 01:20:09;;;;;;;43.42;24.23;;;;;;;9.71;72.78;95559.28;5016383;28;20021;-75
2021/11/08 01:22:35;;;;;;;38.92;22.95;;;;;;;9.65;72.21;95570.66;5043317;28;20086;-77
2021/11/08 01:25:01;;;;;;;42.85;24.08;;;;;;;9.61;72.77;95574.66;5043539;28;20029;-75
2021/11/08 01:27:40;;;;;;;35.08;19.38;;;;;;;9.62;70.91;95576.34;5037897;28;20032;-75
2021/11/08 01:30:15;;;;;;;33.55;20.42;;;;;;;9.49;70.98;95579.53;5036157;28;20045;-77
2021/11/08 01:32:50;;;;;;;32.97;19.15;;;;;;;9.47;71.01;95579.69;5027279;28;20055;-77
2021/11/08 01:35:16;;;;;;;29.90;19.48;;;;;;;9.45;71.84;95559.44;5043142;28;20036;-78
2021/11/08 01:37:50;;;;;;;31.63;19.10;;;;;;;9.38;71.60;95556.59;5043862;28;20450;-76
2021/11/08 01:40:15;;;;;;;31.75;18.33;;;;;;;9.35;72.15;95551.59;5044451;28;20021;-74
2021/11/08 01:42:40;;;;;;;33.75;19.60;;;;;;;9.38;73.21;95553.94;5043716;28;20031;-76
2021/11/08 01:45:06;;;;;;;31.50;19.23;;;;;;;9.36;73.85;95550.56;5042998;28;20029;-74
2021/11/08 01:47:32;;;;;;;35.53;19.17;;;;;;;9.37;73.67;95545.06;5043091;28;20223;-76
2021/11/08 01:49:57;;;;;;;36.72;21.00;;;;;;;9.44;74.24;95547.91;5044117;28;20024;-74
2021/11/08 01:52:23;;;;;;;38.75;20.77;;;;;;;9.44;74.57;95553.25;5043363;28;20021;-76
2021/11/08 01:54:48;;;;;;;48.17;21.80;;;;;;;9.34;74.28;95539.19;5042878;28;20029;-76
2021/11/08 01:57:14;;;;;;;43.95;20.42;;;;;;;9.28;74.70;95536.16;5042289;28;20021;-74
2021/11/08 01:59:39;;;;;;;40.05;20.58;;;;;;;9.24;73.93;95545.53;5043734;28;20246;-74
2021/11/08 02:02:05;;;;;;;34.38;19.48;;;;;;;9.22;74.10;95544.84;5043369;28;20037;-76
2021/11/08 02:04:30;;;;;;;40.92;19.73;;;;;;;9.12;75.20;95544.19;5042653;28;20041;-74
2021/11/08 02:06:56;;;;;;;37.65;19.67;;;;;;;9.10;74.01;95547.03;5043401;28;20025;-75
2021/11/08 02:09:22;;;;;;;36.58;21.02;;;;;;;9.07;74.93;95541.16;5042825;28;20036;-76
2021/11/08 02:11:49;;;;;;;36.83;19.38;;;;;;;9.05;74.21;95540.50;5042483;28;20130;-75
2021/11/08 02:14:14;;;;;;;36.47;18.63;;;;;;;9.06;73.99;95542.19;5042044;28;20025;-76
2021/11/08 02:16:40;;;;;;;35.78;19.95;;;;;;;9.09;73.81;95540.00;5043536;28;20029;-76
2021/11/08 02:19:05;;;;;;;32.28;19.55;;;;;;;9.03;74.60;95536.16;5042661;28;20017;-77
2021/11/08 02:21:31;;;;;;;32.40;18.67;;;;;;;9.11;73.22;95531.78;5041360;28;20115;-75
2021/11/08 02:23:57;;;;;;;32.35;19.08;;;;;;;9.11;73.59;95531.78;5041100;28;20064;-77
2021/11/08 02:26:23;;;;;;;30.27;18.63;;;;;;;9.00;73.58;95525.78;5041697;28;20491;-74
2021/11/08 02:28:50;;;;;;;29.55;17.63;;;;;;;8.94;73.31;95523.75;5042867;28;20056;-76
2021/11/08 02:31:18;;;;;;;28.42;17.85;;;;;;;8.97;73.41;95536.81;5024945;28;20454;-76
2021/11/08 02:33:44;;;;;;;31.13;18.48;;;;;;;8.83;73.86;95534.78;5041074;28;20029;-75
2021/11/08 02:36:10;;;;;;;33.08;18.23;;;;;;;8.88;73.24;95535.13;5042552;28;20336;-74
2021/11/08 02:38:40;;;;;;;33.35;19.27;;;;;;;8.80;74.59;95529.75;5042492;28;20524;-77
2021/11/08 02:41:06;;;;;;;30.02;17.30;;;;;;;8.89;72.89;95534.97;5041959;28;20864;-75
2021/11/08 02:43:31;;;;;;;38.72;19.08;;;;;;;8.88;73.12;95533.28;5042344;28;20155;-76
2021/11/08 02:46:02;;;;;;;31.90;18.80;;;;;;;8.78;73.79;95527.25;5042453;28;20033;-75
2021/11/08 02:48:28;;;;;;;37.72;21.80;;;;;;;8.79;73.77;95523.56;5042419;28;20032;-76
2021/11/08 02:50:57;;;;;;;42.78;23.70;;;;;;;8.73;74.08;95513.53;5041411;28;21579;-76
2021/11/08 02:53:24;;;;;;;36.47;22.35;;;;;;;8.70;74.45;95504.00;5041087;28;20087;-74
2021/11/08 02:55:50;;;;;;;42.97;23.63;;;;;;;8.73;74.58;95508.16;5041355;28;20029;-76
2021/11/08 02:58:17;;;;;;;40.72;22.85;;;;;;;8.76;75.22;95495.31;5042766;28;20033;-75
2021/11/08 03:00:42;;;;;;;38.67;21.83;;;;;;;8.63;75.73;95493.13;5041786;28;20807;-76
2021/11/08 03:03:08;;;;;;;40.67;21.75;;;;;;;8.77;75.74;95488.97;5042574;28;20040;-75
2021/11/08 03:05:35;;;;;;;41.20;23.00;;;;;;;8.76;76.05;95495.31;5043266;28;20029;-76
2021/11/08 03:08:03;;;;;;;40.67;21.92;;;;;;;8.74;75.77;95504.47;5045734;28;20021;-78
2021/11/08 03:10:29;;;;;;;39.90;21.98;;;;;;;8.80;75.04;95517.22;5047265;28;20280;-78
2021/11/08 03:12:57;;;;;;;37.72;19.48;;;;;;;8.67;73.44;95503.47;5047377;28;20017;-76
2021/11/08 03:15:52;;;;;;;41.58;19.92;;;;;;;8.72;73.71;95510.00;5047424;28;20100;-75
2021/11/08 03:18:17;;;;;;;30.33;17.42;;;;;;;8.84;74.41;95509.69;5045828;28;20450;-76
2021/11/08 03:20:43;;;;;;;27.55;17.35;;;;;;;8.90;74.45;95514.38;5047565;28;20025;-74
2021/11/08 03:23:08;;;;;;;32.20;18.75;;;;;;;8.77;75.79;95502.31;5047450;28;20025;-76
2021/11/08 03:26:27;;;;;;;31.92;18.05;;;;;;;8.79;75.19;95504.84;5046098;28;20074;-76
2021/11/08 03:28:23;;;;;;;34.83;19.40;;;;;;;8.71;76.05;95500.31;5046089;28;20505;-74
2021/11/08 03:30:50;;;;;;;37.88;19.63;;;;;;;8.73;76.45;95500.16;5046744;28;20479;-74
2021/11/08 03:33:16;;;;;;;38.33;19.88;;;;;;;8.71;76.90;95502.13;5047446;28;20067;-77
2021/11/08 03:35:42;;;;;;;36.80;19.42;;;;;;;8.67;77.49;95498.13;5029368;28;20500;-75
2021/11/08 03:38:08;;;;;;;43.33;20.45;;;;;;;8.63;77.30;95492.28;5048095;28;20035;-77
2021/11/08 03:40:37;;;;;;;39.67;19.63;;;;;;;8.60;76.87;95484.56;5029754;28;20510;-76
2021/11/08 03:43:05;;;;;;;43.00;20.77;;;;;;;8.62;76.02;95487.94;5046328;28;20071;-77
2021/11/08 03:45:31;;;;;;;45.90;21.42;;;;;;;8.61;77.82;95487.09;5045670;28;20025;-77
2021/11/08 03:47:57;;;;;;;43.92;22.38;;;;;;;8.64;78.56;95493.97;5045385;28;20029;-77
2021/11/08 03:50:23;;;;;;;44.90;21.75;;;;;;;8.63;77.55;95492.28;5046446;28;20083;-76
2021/11/08 03:52:49;;;;;;;47.85;22.40;;;;;;;8.65;77.59;95487.59;5046286;28;20174;-76
2021/11/08 03:55:14;;;;;;;51.95;23.45;;;;;;;8.68;77.65;95479.25;5046607;28;20028;-77
2021/11/08 03:57:40;;;;;;;47.17;22.23;;;;;;;8.72;77.20;95480.59;5046711;28;20033;-75
2021/11/08 04:00:07;;;;;;;50.30;23.77;;;;;;;8.71;78.04;95480.75;5047798;28;20411;-78
2021/11/08 04:02:32;;;;;;;48.17;21.58;;;;;;;8.69;77.93;95496.13;5048877;28;20021;-77
2021/11/08 04:05:01;;;;;;;43.50;20.85;;;;;;;8.72;77.13;95479.78;5048731;28;20380;-75
2021/11/08 04:07:26;;;;;;;48.72;21.38;;;;;;;8.70;76.54;95481.75;5048974;28;20029;-76
2021/11/08 04:09:52;;;;;;;54.15;20.52;;;;;;;8.76;75.07;95481.94;5047092;28;20036;-78
2021/11/08 04:12:18;;;;;;;46.10;20.52;;;;;;;8.74;75.49;95489.28;5031012;28;20032;-76
2021/11/08 04:14:43;;;;;;;46.83;21.00;;;;;;;8.72;75.65;95490.47;5046648;28;20523;-75
2021/11/08 04:17:10;;;;;;;45.45;20.92;;;;;;;8.67;75.86;95493.63;5048628;28;20021;-75
2021/11/08 04:19:36;;;;;;;44.40;20.75;;;;;;;8.69;76.26;95493.47;5029743;28;20059;-77
2021/11/08 04:22:01;;;;;;;42.03;19.92;;;;;;;8.62;77.38;95496.81;5046872;28;20052;-76
2021/11/08 04:24:28;;;;;;;32.70;18.40;;;;;;;8.62;77.58;95493.28;5048603;28;20064;-76
2021/11/08 04:26:54;;;;;;;34.15;19.85;;;;;;;8.62;78.01;95490.59;5047767;28;20028;-77
2021/11/08 04:29:20;;;;;;;34.55;18.85;;;;;;;8.68;77.01;95483.75;5047023;28;20261;-76
2021/11/08 04:31:45;;;;;;;34.95;19.33;;;;;;;8.67;77.24;95498.13;5046275;28;20476;-75
2021/11/08 04:39:38;;;;;;;35.25;18.75;;;;;;;8.57;77.56;95487.56;5047050;28;20055;-76
2021/11/08 04:50:05;;;;;;;38.00;18.88;;;;;;;8.59;79.97;95509.66;5047199;28;20099;-75
2021/11/08 05:23:32;;;;;;;44.47;22.60;;;;;;;8.65;79.18;95487.59;5031076;28;20156;-76
2021/11/08 05:30:36;;;;;;;52.25;26.30;;;;;;;8.55;79.32;95476.19;5027179;28;20156;-76
2021/11/08 05:33:02;;;;;;;52.00;25.60;;;;;;;8.54;79.24;95483.38;5025304;28;20535;-76
2021/11/08 05:35:27;;;;;;;53.97;26.38;;;;;;;8.58;79.28;95478.53;5035106;28;20033;-76
2021/11/08 05:37:53;;;;;;;47.75;25.30;;;;;;;8.58;79.01;95473.19;5035953;28;20628;-75
2021/11/08 05:40:30;;;;;;;49.45;25.27;;;;;;;8.63;78.76;95486.91;5033169;28;20033;-75
2021/11/08 05:42:56;;;;;;;47.65;24.73;;;;;;;8.62;78.00;95485.25;5014943;28;20145;-75
2021/11/08 05:45:21;;;;;;;42.33;23.13;;;;;;;8.65;77.77;95491.13;5036249;28;20524;-76
2021/11/08 05:47:47;;;;;;;48.65;25.17;;;;;;;8.69;77.31;95488.94;5034321;28;20090;-76
2021/11/08 05:50:17;;;;;;;47.78;24.67;;;;;;;8.72;77.93;95496.63;5019370;28;20024;-75
2021/11/08 05:52:43;;;;;;;50.58;24.52;;;;;;;8.76;77.45;95491.78;5040971;28;20048;-77
2021/11/08 05:55:11;;;;;;;48.70;25.35;;;;;;;8.73;78.10;95505.50;5033844;28;20407;-75
2021/11/08 05:57:50;;;;;;;42.55;22.67;;;;;;;8.74;78.18;95509.84;5034793;28;20039;-76
2021/11/08 06:49:35;;;;;;;39.22;20.20;;;;;;;9.81;77.91;95510.03;5040536;28;20111;-75
2021/11/08 06:52:01;;;;;;;40.72;20.27;;;;;;;10.05;77.26;95501.09;5045634;28;20025;-76
2021/11/08 06:54:28;;;;;;;44.90;20.80;;;;;;;10.10;76.94;95503.28;5042604;28;20035;-75
2021/11/08 06:56:58;;;;;;;42.10;20.75;;;;;;;10.17;76.90;95500.75;5043247;28;20056;-75
2021/11/08 06:59:25;;;;;;;44.22;22.13;;;;;;;10.22;76.59;95501.88;5038895;28;20051;-75
2021/11/08 07:01:54;;;;;;;45.72;22.92;;;;;;;10.41;76.00;95501.66;5040465;28;20029;-77
2021/11/08 07:04:19;;;;;;;41.05;20.55;;;;;;;10.66;75.20;95502.41;5040665;28;20029;-75
2021/11/08 07:06:45;;;;;;;42.40;20.55;;;;;;;10.83;75.47;95497.75;5040525;28;20091;-74
2021/11/08 07:09:11;;;;;;;41.08;21.23;;;;;;;10.98;74.69;95497.84;5044560;28;20530;-75
2021/11/08 07:11:38;;;;;;;38.10;21.23;;;;;;;10.95;74.29;95492.84;5037295;28;20040;-75
2021/11/08 07:14:07;;;;;;;40.67;21.08;;;;;;;11.13;74.30;95502.44;5040675;28;20029;-75
2021/11/08 07:16:33;;;;;;;48.00;22.98;;;;;;;11.02;75.01;95494.81;5038700;28;20025;-75
2021/11/08 07:18:59;;;;;;;43.85;24.00;;;;;;;10.99;74.88;95498.69;5039958;28;20033;-75
2021/11/08 07:21:24;;;;;;;48.05;25.00;;;;;;;10.90;75.05;95494.41;5038210;28;20025;-78
2021/11/08 07:23:50;;;;;;;54.17;26.30;;;;;;;10.87;75.51;95492.88;5037758;28;20032;-76
2021/11/08 07:26:16;;;;;;;49.60;26.10;;;;;;;10.79;75.78;95490.25;5037536;28;20025;-75
2021/11/08 07:28:41;;;;;;;48.72;26.05;;;;;;;10.87;75.33;95485.69;5036965;28;20172;-75
2021/11/08 07:31:08;;;;;;;57.10;28.33;;;;;;;10.98;75.12;95489.81;5039158;28;20033;-76
2021/11/08 07:33:34;;;;;;;59.88;29.63;;;;;;;10.98;75.50;95479.06;5038275;28;20032;-76
2021/11/08 07:36:00;;;;;;;60.70;29.48;;;;;;;11.07;75.48;95481.69;5037388;28;20235;-75
2021/11/08 07:38:25;;;;;;;54.95;26.92;;;;;;;11.10;75.17;95479.50;5037479;28;20029;-76
2021/11/08 07:40:51;;;;;;;49.22;25.42;;;;;;;11.17;74.75;95484.16;5037508;28;20025;-77
2021/11/08 07:43:16;;;;;;;46.25;26.10;;;;;;;11.30;74.54;95483.53;5035197;28;20585;-76
2021/11/08 07:45:42;;;;;;;45.67;25.13;;;;;;;11.43;74.56;95489.13;5043885;28;20086;-76
2021/11/08 07:48:08;;;;;;;47.42;25.85;;;;;;;11.60;73.80;95479.09;5034621;28;20025;-75
2021/11/08 07:50:33;;;;;;;43.55;22.35;;;;;;;11.85;72.97;95478.81;5036298;28;20041;-75
2021/11/08 07:52:59;;;;;;;43.95;24.92;;;;;;;11.97;72.63;95484.59;5034565;28;20107;-76
2021/11/08 07:55:24;;;;;;;46.88;23.27;;;;;;;12.17;72.00;95483.25;5035864;28;20291;-77
2021/11/08 07:57:50;;;;;;;45.72;24.33;;;;;;;12.29;72.29;95479.06;5037296;28;20032;-76
2021/11/08 08:00:15;;;;;;;39.88;24.20;;;;;;;12.47;71.80;95489.44;5034755;28;20038;-76
2021/11/08 08:02:41;;;;;;;49.60;24.40;;;;;;;12.64;70.80;95485.69;5037222;28;20033;-77
2021/11/08 08:05:07;;;;;;;42.17;24.60;;;;;;;12.63;71.42;95476.78;5036537;28;20040;-76
2021/11/08 08:07:32;;;;;;;38.08;23.35;;;;;;;12.85;71.03;95474.13;5032132;28;20163;-74
2021/11/08 08:09:58;;;;;;;50.53;24.92;;;;;;;13.03;70.97;95475.53;5036379;28;20044;-77
2021/11/08 08:12:23;;;;;;;40.22;23.30;;;;;;;13.25;70.05;95470.19;5039159;28;20025;-79
2021/11/08 08:14:49;;;;;;;41.13;24.95;;;;;;;13.34;69.57;95463.63;5043371;28;20028;-77
2021/11/08 08:17:14;;;;;;;49.60;26.10;;;;;;;13.51;69.96;95458.00;5033969;28;20022;-76
2021/11/08 08:19:39;;;;;;;39.78;23.25;;;;;;;13.63;69.92;95456.44;5039270;28;20035;-77
2021/11/08 08:22:05;;;;;;;37.88;24.55;;;;;;;13.74;69.53;95451.50;5039000;28;20025;-75
2021/11/08 08:24:31;;;;;;;45.67;26.15;;;;;;;13.81;69.10;95452.41;5035867;28;20087;-75
2021/11/08 08:26:56;;;;;;;53.50;28.38;;;;;;;13.93;69.01;95450.81;5038866;28;20070;-77
2021/11/08 08:29:22;;;;;;;54.60;30.40;;;;;;;14.06;68.72;95457.31;5034287;28;20132;-75
2021/11/08 08:31:50;;;;;;;55.90;32.67;;;;;;;14.10;68.53;95458.59;5031768;28;20086;-77
2021/11/08 08:34:16;;;;;;;54.67;34.25;;;;;;;14.32;67.26;95462.03;5032049;28;20086;-76
2021/11/08 08:36:41;;;;;;;53.33;32.13;;;;;;;14.40;67.98;95460.19;5031316;28;20155;-76
2021/11/08 08:39:07;;;;;;;57.83;32.75;;;;;;;14.48;67.48;95459.22;5019736;28;20028;-76
2021/11/08 08:41:33;;;;;;;57.00;33.92;;;;;;;14.53;67.04;95456.72;5032818;28;20395;-76
2021/11/08 08:43:58;;;;;;;59.25;35.72;;;;;;;14.65;66.61;95457.81;5018048;28;20043;-76
2021/11/08 08:46:24;;;;;;;59.03;33.42;;;;;;;14.69;66.43;95455.53;5028984;28;20029;-75
2021/11/08 08:48:50;;;;;;;59.75;31.65;;;;;;;14.72;66.16;95452.44;5036370;28;20031;-76
2021/11/08 08:51:17;;;;;;;49.65;30.17;;;;;;;14.84;65.96;95458.13;5027101;28;20017;-79
2021/11/08 08:53:43;;;;;;;55.28;32.28;;;;;;;14.91;65.68;95450.84;5018789;28;20076;-77
2021/11/08 08:56:08;;;;;;;50.88;29.83;;;;;;;15.10;65.92;95452.97;5032111;28;20804;-77
2021/11/08 08:58:33;;;;;;;53.08;29.92;;;;;;;15.17;65.16;95454.66;5032180;28;20032;-78
2021/11/08 09:00:59;;;;;;;55.88;29.30;;;;;;;15.24;65.47;95454.66;5033873;28;20021;-75
2021/11/08 09:03:25;;;;;;;46.53;28.15;;;;;;;15.38;65.33;95454.69;5031289;28;20029;-79
2021/11/08 09:05:50;;;;;;;44.33;27.38;;;;;;;15.55;64.76;95439.72;5015863;28;20033;-78
2021/11/08 09:08:17;;;;;;;45.92;27.95;;;;;;;15.62;63.75;95438.88;5028675;28;20431;-75
2021/11/08 09:10:42;;;;;;;40.65;25.92;;;;;;;15.69;64.06;95443.25;5037985;28;20032;-77
2021/11/08 09:13:08;;;;;;;42.20;25.67;;;;;;;15.76;63.93;95439.69;5034548;28;20065;-78
2021/11/08 09:15:34;;;;;;;43.88;25.08;;;;;;;15.92;63.71;95438.44;5030996;28;20043;-75
2021/11/08 09:18:00;;;;;;;41.00;24.55;;;;;;;15.93;62.37;95435.50;5029936;28;20030;-76
2021/11/08 09:20:25;;;;;;;34.85;22.15;;;;;;;15.99;62.77;95428.44;5034149;28;20115;-76
2021/11/08 09:22:51;;;;;;;35.35;21.15;;;;;;;16.13;60.88;95428.41;5037215;28;20075;-76
2021/11/08 09:25:18;;;;;;;37.67;22.60;;;;;;;16.07;59.95;95422.00;5028686;28;20033;-77
2021/11/08 09:27:44;;;;;;;39.50;21.60;;;;;;;16.25;60.44;95420.50;5030040;28;20025;-77
2021/11/08 09:30:11;;;;;;;48.60;24.02;;;;;;;16.25;59.67;95420.50;5039754;28;20052;-79
2021/11/08 09:32:36;;;;;;;38.03;22.83;;;;;;;16.37;59.60;95413.38;5042006;28;20108;-76
2021/11/08 09:35:04;;;;;;;35.58;21.35;;;;;;;16.33;58.31;95417.53;5040344;28;20033;-76
2021/11/08 09:37:33;;;;;;;35.10;20.30;;;;;;;16.34;58.81;95416.50;5030403;28;20103;-79
2021/11/08 09:39:58;;;;;;;37.00;22.25;;;;;;;16.36;58.74;95419.84;5032668;28;20696;-77
2021/11/08 09:42:24;;;;;;;37.97;22.15;;;;;;;16.52;58.37;95409.56;5017384;28;20032;-78
2021/11/08 09:44:49;;;;;;;35.53;19.90;;;;;;;16.68;57.82;95402.81;5022732;28;20032;-78
2021/11/08 09:47:15;;;;;;;36.50;21.23;;;;;;;16.71;57.38;95404.25;5039542;28;20612;-77
2021/11/08 09:49:51;;;;;;;38.75;21.38;;;;;;;16.73;57.23;95411.13;5042124;28;20021;-78
2021/11/08 09:52:17;;;;;;;33.53;17.73;;;;;;;16.76;56.19;95402.56;5040229;28;20104;-77
2021/11/08 09:54:43;;;;;;;30.00;16.55;;;;;;;16.59;56.63;95398.69;5017894;28;20475;-79
2021/11/08 09:57:09;;;;;;;24.25;13.95;;;;;;;16.61;55.13;95392.00;5043553;28;20029;-77
2021/11/08 09:59:35;;;;;;;24.48;14.93;;;;;;;16.65;55.54;95392.41;5041100;28;20032;-77
2021/11/08 10:02:00;;;;;;;30.30;15.65;;;;;;;16.80;55.20;95389.41;5041148;28;20033;-78
2021/11/08 10:04:26;;;;;;;27.60;15.75;;;;;;;16.89;54.59;95390.00;5024535;28;20078;-80
2021/11/08 10:06:51;;;;;;;30.23;16.30;;;;;;;16.95;55.89;95393.69;5034546;28;20060;-78
2021/11/08 10:09:20;;;;;;;30.15;17.20;;;;;;;17.13;54.66;95377.56;5038827;28;20029;-77
2021/11/08 10:11:47;;;;;;;32.42;17.25;;;;;;;17.08;54.04;95390.94;5039152;28;20377;-79
2021/11/08 10:14:12;;;;;;;33.60;17.55;;;;;;;17.13;54.63;95384.84;5031041;28;20033;-78
2021/11/08 10:16:39;;;;;;;33.80;16.33;;;;;;;17.23;53.72;95381.66;5017630;28;20095;-77
2021/11/08 10:19:07;;;;;;;30.52;17.77;;;;;;;17.23;54.05;95370.81;5043173;28;20032;-77
2021/11/08 10:21:44;;;;;;;28.30;16.95;;;;;;;17.28;54.18;95362.84;5035378;28;20025;-79
2021/11/08 10:24:15;;;;;;;34.88;18.10;;;;;;;17.27;54.14;95359.31;5037049;28;20025;-80
2021/11/08 10:26:40;;;;;;;30.30;17.63;;;;;;;17.38;53.89;95370.47;5041036;28;20032;-77
2021/11/08 10:29:10;;;;;;;29.52;16.70;;;;;;;17.34;53.69;95361.97;5037613;28;20083;-77
2021/11/08 10:31:43;;;;;;;34.20;17.33;;;;;;;17.38;55.25;95362.34;5037969;28;20041;-79
2021/11/08 10:34:10;;;;;;;26.88;15.00;;;;;;;17.47;53.66;95352.06;5041809;28;20021;-77
2021/11/08 10:36:35;;;;;;;25.45;15.25;;;;;;;17.46;53.34;95342.28;5037229;28;20057;-78
2021/11/08 10:39:01;;;;;;;25.45;13.98;;;;;;;17.55;52.71;95341.72;5041380;28;20110;-80
2021/11/08 10:41:33;;;;;;;26.98;15.07;;;;;;;17.63;52.32;95339.81;5041464;28;20056;-79
2021/11/08 10:44:22;;;;;;;28.77;14.30;;;;;;;17.59;51.83;95344.03;5040938;28;20486;-77
2021/11/08 10:46:57;;;;;;;26.55;14.10;;;;;;;17.70;52.19;95353.31;5038552;28;20029;-78
2021/11/08 10:49:26;;;;;;;28.75;14.77;;;;;;;17.82;52.32;95350.66;5040792;28;20071;-77
2021/11/08 10:51:54;;;;;;;26.77;13.48;;;;;;;17.83;51.80;95352.34;5041084;28;20058;-78
2021/11/08 10:54:23;;;;;;;29.30;14.25;;;;;;;17.88;51.07;95352.47;5033382;28;20114;-76
2021/11/08 10:57:05;;;;;;;28.58;13.05;;;;;;;18.03;51.30;95357.53;5041152;28;20086;-78
2021/11/08 10:59:46;;;;;;;30.58;13.27;;;;;;;18.24;51.36;95364.41;5036193;28;20103;-77
2021/11/08 11:02:13;;;;;;;32.22;12.98;;;;;;;18.36;51.44;95361.75;5035404;28;20029;-80
2021/11/08 11:04:46;;;;;;;25.77;12.32;;;;;;;18.55;50.98;95358.19;5038439;28;20025;-79
2021/11/08 11:07:13;;;;;;;22.58;13.63;;;;;;;18.69;51.05;95358.81;5043582;28;20056;-77
2021/11/08 11:09:38;;;;;;;33.88;13.82;;;;;;;18.84;50.66;95356.53;5031612;28;20503;-79
2021/11/08 11:12:07;;;;;;;35.25;12.70;;;;;;;19.01;50.43;95355.84;5032458;28;20045;-77
2021/11/08 11:14:50;;;;;;;20.58;11.77;;;;;;;19.11;50.16;95364.31;5032164;28;20082;-78
2021/11/08 11:17:19;;;;;;;;;;;;;;;19.22;49.78;95356.41;5031954;28;20665;-80
2021/11/08 11:19:45;;;;;;;25.15;11.43;;;;;;;19.27;48.89;95357.38;5040280;28;19999;-78
2021/11/08 11:22:14;;;;;;;23.88;10.90;;;;;;;19.36;48.56;95348.88;5038717;28;20109;-79
2021/11/08 11:24:48;;;;;;;20.30;9.52;;;;;;;19.43;48.89;95349.56;5043414;28;20388;-79
2021/11/08 11:27:37;;;;;;;27.45;9.73;;;;;;;19.45;47.81;95347.47;5036444;28;20025;-79
2021/11/08 11:30:12;;;;;;;27.50;10.07;;;;;;;19.64;47.95;95350.06;5047796;28;20075;-79
2021/11/08 11:32:37;;;;;;;18.88;9.18;;;;;;;19.71;47.79;95355.38;5040621;28;20511;-77
2021/11/08 11:35:13;;;;;;;20.05;9.52;;;;;;;19.79;47.30;95348.75;5037180;28;20060;-77
2021/11/08 11:37:39;;;;;;;23.23;9.55;;;;;;;19.89;47.55;95349.78;5043569;28;20476;-77
2021/11/08 11:40:11;;;;;;;23.23;9.85;;;;;;;19.96;47.46;95343.41;5048006;28;20017;-78
2021/11/08 11:42:54;;;;;;;25.08;8.98;;;;;;;20.04;47.03;95348.50;5046848;28;20033;-81
2021/11/08 11:45:19;;;;;;;16.83;9.00;;;;;;;20.04;47.09;95345.78;5046652;28;20032;-77
2021/11/08 11:48:04;;;;;;;20.63;9.93;;;;;;;20.02;47.54;95345.19;5039946;28;20411;-77
2021/11/08 11:50:31;;;;;;;21.67;9.65;;;;;;;20.15;48.07;95346.00;5043260;28;20028;-80
2021/11/08 11:52:58;;;;;;;23.85;10.20;;;;;;;20.21;48.03;95348.59;5038481;28;20031;-75
2021/11/08 11:55:23;;;;;;;17.55;8.35;;;;;;;20.24;46.57;95342.69;5048224;28;20071;-77
2021/11/08 11:57:49;;;;;;;19.00;9.80;;;;;;;20.23;45.92;95337.47;5039964;28;20034;-78
2021/11/08 12:00:15;;;;;;;18.42;9.00;;;;;;;20.31;46.90;95344.44;5044562;28;20036;-77
2021/11/08 12:02:41;;;;;;;22.42;10.10;;;;;;;20.35;46.64;95340.16;5046732;28;20104;-78
2021/11/08 12:05:06;;;;;;;24.77;10.13;;;;;;;20.35;46.44;95340.97;5047307;28;20556;-79
2021/11/08 12:07:32;;;;;;;21.80;9.73;;;;;;;20.37;46.14;95338.03;5041339;28;20036;-79
2021/11/08 12:10:00;;;;;;;21.55;9.68;;;;;;;20.44;46.66;95338.69;5046371;28;20021;-80
2021/11/08 12:12:26;;;;;;;19.00;9.60;;;;;;;20.51;46.75;95327.66;5029078;28;20067;-78
2021/11/08 12:14:56;;;;;;;26.35;11.15;;;;;;;20.54;46.25;95340.78;5046454;28;20071;-79
2021/11/08 12:17:22;;;;;;;20.52;10.18;;;;;;;20.59;46.62;95338.16;5046680;28;20442;-78
2021/11/08 12:19:47;;;;;;;23.45;9.75;;;;;;;20.76;45.99;95331.94;5045426;28;20514;-80
2021/11/08 12:22:16;;;;;;;18.90;9.73;;;;;;;20.86;45.74;95323.94;5038772;28;20017;-78
2021/11/08 12:24:44;;;;;;;32.38;10.30;;;;;;;20.98;44.76;95326.66;5036930;28;20111;-78
2021/11/08 12:27:11;;;;;;;23.38;9.73;;;;;;;21.11;43.84;95336.41;5005637;28;20053;-79
2021/11/08 12:29:50;;;;;;;19.77;8.07;;;;;;;21.28;43.05;95316.47;5038173;28;20134;-78
2021/11/08 12:32:16;;;;;;;19.52;8.07;;;;;;;21.44;42.57;95317.53;5040558;28;20021;-79
2021/11/08 12:34:45;;;;;;;29.45;9.60;;;;;;;21.52;42.91;95319.06;5035087;28;20045;-77
2021/11/08 12:37:11;;;;;;;19.00;11.13;;;;;;;21.52;43.11;95318.22;5037378;28;20032;-79
2021/11/08 12:39:36;;;;;;;22.42;9.40;;;;;;;21.45;42.32;95323.84;5044850;28;20025;-77
2021/11/08 12:42:11;;;;;;;18.98;9.15;;;;;;;21.40;42.68;95315.56;5044001;28;20055;-79
2021/11/08 12:44:45;;;;;;;23.58;10.23;;;;;;;21.52;43.75;95313.59;5028642;28;20104;-77
2021/11/08 12:47:12;;;;;;;21.63;9.90;;;;;;;21.58;43.49;95309.03;5046109;28;20025;-77
2021/11/08 12:49:54;;;;;;;17.63;9.63;;;;;;;21.58;43.03;95306.31;5039093;28;20060;-78
2021/11/08 12:52:22;;;;;;;22.60;8.80;;;;;;;21.56;44.00;95294.81;5046126;28;20052;-77
2021/11/08 12:54:57;;;;;;;19.98;9.13;;;;;;;21.55;43.46;95285.81;5028639;28;20067;-76
2021/11/08 12:57:24;;;;;;;25.75;10.60;;;;;;;21.57;44.01;95283.63;5026093;28;20060;-78
2021/11/08 13:00:03;;;;;;;18.23;9.43;;;;;;;21.67;43.68;95290.31;5041172;28;20025;-79
2021/11/08 13:02:32;;;;;;;20.63;8.90;;;;;;;21.77;44.41;95297.81;5045352;28;20040;-78
2021/11/08 13:04:59;;;;;;;21.05;8.90;;;;;;;21.92;41.35;95302.69;5039291;28;20036;-77
2021/11/08 13:07:37;;;;;;;17.80;8.50;;;;;;;22.09;42.25;95316.28;5042021;28;20028;-77